sensor_id;sensor_type;location;lat;lon;timestamp;P1;durP1;ratioP1;P2;durP2;ratioP2
75062;SDS011;63981;51.052;13.754;2022-12-07T00:00:46;9.43;;;5.82;;
75062;SDS011;63981;51.052;13.754;2022-12-07T00:01:47;8.10;;;5.15;;
75062;SDS011;63981;51.052;13.754;2022-12-07T00:03:49;9.40;;;5.78;;
75062;SDS011;63981;51.052;13.754;2022-12-07T00:04:53;9.10;;;5.95;;
75062;SDS011;63981;51.052;13.754;2022-12-07T00:05:57;9.25;;;6.00;;
75062;SDS011;63981;51.052;13.754;2022-12-07T00:06:58;10.38;;;5.72;;
75062;SDS011;63981;51.052;13.754;2022-12-07T00:07:59;8.68;;;5.05;;
75062;SDS011;63981;51.052;13.754;2022-12-07T00:08:59;8.68;;;5.68;;
75062;SDS011;63981;51.052;13.754;2022-12-07T00:10:03;10.43;;;5.90;;
75062;SDS011;63981;51.052;13.754;2022-12-07T00:11:05;9.52;;;5.85;;
75062;SDS011;63981;51.052;13.754;2022-12-07T00:12:08;8.73;;;6.15;;
75062;SDS011;63981;51.052;13.754;2022-12-07T00:13:08;10.73;;;5.28;;
75062;SDS011;63981;51.052;13.754;2022-12-07T00:14:11;9.90;;;6.13;;
75062;SDS011;63981;51.052;13.754;2022-12-07T00:15:15;9.35;;;5.82;;
75062;SDS011;63981;51.052;13.754;2022-12-07T00:16:16;9.95;;;6.22;;
75062;SDS011;63981;51.052;13.754;2022-12-07T00:17:19;9.82;;;6.07;;
75062;SDS011;63981;51.052;13.754;2022-12-07T00:18:19;8.80;;;5.55;;
75062;SDS011;63981;51.052;13.754;2022-12-07T00:20:20;10.25;;;6.47;;
75062;SDS011;63981;51.052;13.754;2022-12-07T00:21:22;8.20;;;5.32;;
75062;SDS011;63981;51.052;13.754;2022-12-07T00:22:27;8.90;;;5.78;;
75062;SDS011;63981;51.052;13.754;2022-12-07T00:23:27;8.05;;;5.05;;
75062;SDS011;63981;51.052;13.754;2022-12-07T00:24:28;9.27;;;5.78;;
75062;SDS011;63981;51.052;13.754;2022-12-07T00:25:29;9.93;;;5.90;;
75062;SDS011;63981;51.052;13.754;2022-12-07T00:26:34;8.98;;;5.72;;
75062;SDS011;63981;51.052;13.754;2022-12-07T00:27:39;8.23;;;5.25;;
75062;SDS011;63981;51.052;13.754;2022-12-07T00:28:44;9.50;;;5.43;;
75062;SDS011;63981;51.052;13.754;2022-12-07T00:29:49;9.10;;;5.55;;
75062;SDS011;63981;51.052;13.754;2022-12-07T00:30:49;8.30;;;5.63;;
75062;SDS011;63981;51.052;13.754;2022-12-07T00:31:50;14.77;;;6.88;;
75062;SDS011;63981;51.052;13.754;2022-12-07T00:33:52;10.73;;;5.13;;
75062;SDS011;63981;51.052;13.754;2022-12-07T00:34:54;10.25;;;5.63;;
75062;SDS011;63981;51.052;13.754;2022-12-07T00:35:56;10.90;;;6.13;;
75062;SDS011;63981;51.052;13.754;2022-12-07T00:36:57;13.85;;;7.05;;
75062;SDS011;63981;51.052;13.754;2022-12-07T00:37:58;10.27;;;6.63;;
75062;SDS011;63981;51.052;13.754;2022-12-07T00:38:59;10.88;;;6.55;;
75062;SDS011;63981;51.052;13.754;2022-12-07T00:40:02;10.23;;;5.90;;
75062;SDS011;63981;51.052;13.754;2022-12-07T00:41:07;10.38;;;5.95;;
75062;SDS011;63981;51.052;13.754;2022-12-07T00:42:16;10.48;;;6.10;;
75062;SDS011;63981;51.052;13.754;2022-12-07T00:43:16;8.30;;;5.63;;
75062;SDS011;63981;51.052;13.754;2022-12-07T00:44:17;10.27;;;6.18;;
75062;SDS011;63981;51.052;13.754;2022-12-07T00:45:18;9.93;;;6.13;;
75062;SDS011;63981;51.052;13.754;2022-12-07T00:46:21;9.52;;;6.25;;
75062;SDS011;63981;51.052;13.754;2022-12-07T00:47:22;11.65;;;6.28;;
75062;SDS011;63981;51.052;13.754;2022-12-07T00:48:23;9.75;;;6.13;;
75062;SDS011;63981;51.052;13.754;2022-12-07T00:49:24;11.00;;;6.10;;
75062;SDS011;63981;51.052;13.754;2022-12-07T00:50:25;10.95;;;6.53;;
75062;SDS011;63981;51.052;13.754;2022-12-07T00:52:27;10.20;;;5.85;;
75062;SDS011;63981;51.052;13.754;2022-12-07T00:54:29;11.13;;;6.13;;
75062;SDS011;63981;51.052;13.754;2022-12-07T00:55:32;10.52;;;6.40;;
75062;SDS011;63981;51.052;13.754;2022-12-07T00:56:33;10.18;;;5.47;;
75062;SDS011;63981;51.052;13.754;2022-12-07T00:57:34;9.70;;;5.60;;
75062;SDS011;63981;51.052;13.754;2022-12-07T00:58:38;10.57;;;6.40;;
75062;SDS011;63981;51.052;13.754;2022-12-07T00:59:39;10.13;;;5.88;;
75062;SDS011;63981;51.052;13.754;2022-12-07T01:00:41;10.63;;;5.88;;
75062;SDS011;63981;51.052;13.754;2022-12-07T01:01:43;10.88;;;6.10;;
75062;SDS011;63981;51.052;13.754;2022-12-07T01:02:44;10.40;;;6.43;;
75062;SDS011;63981;51.052;13.754;2022-12-07T01:03:45;9.23;;;6.63;;
75062;SDS011;63981;51.052;13.754;2022-12-07T01:04:46;9.15;;;6.15;;
75062;SDS011;63981;51.052;13.754;2022-12-07T01:05:51;9.38;;;5.78;;
75062;SDS011;63981;51.052;13.754;2022-12-07T01:06:52;10.77;;;6.47;;
75062;SDS011;63981;51.052;13.754;2022-12-07T01:07:53;11.05;;;6.78;;
75062;SDS011;63981;51.052;13.754;2022-12-07T01:09:54;9.43;;;5.15;;
75062;SDS011;63981;51.052;13.754;2022-12-07T01:11:03;10.25;;;6.68;;
75062;SDS011;63981;51.052;13.754;2022-12-07T01:12:06;10.85;;;6.30;;
75062;SDS011;63981;51.052;13.754;2022-12-07T01:13:06;10.05;;;6.00;;
75062;SDS011;63981;51.052;13.754;2022-12-07T01:15:09;9.40;;;5.75;;
75062;SDS011;63981;51.052;13.754;2022-12-07T01:16:12;11.05;;;6.43;;
75062;SDS011;63981;51.052;13.754;2022-12-07T01:17:14;10.35;;;6.55;;
75062;SDS011;63981;51.052;13.754;2022-12-07T01:18:15;9.15;;;6.07;;
75062;SDS011;63981;51.052;13.754;2022-12-07T01:20:16;9.60;;;5.75;;
75062;SDS011;63981;51.052;13.754;2022-12-07T01:21:28;11.40;;;6.60;;
75062;SDS011;63981;51.052;13.754;2022-12-07T01:22:37;12.18;;;6.82;;
75062;SDS011;63981;51.052;13.754;2022-12-07T01:23:39;10.52;;;5.95;;
75062;SDS011;63981;51.052;13.754;2022-12-07T01:24:40;12.52;;;6.15;;
75062;SDS011;63981;51.052;13.754;2022-12-07T01:25:41;10.68;;;6.25;;
75062;SDS011;63981;51.052;13.754;2022-12-07T01:26:42;10.90;;;5.82;;
75062;SDS011;63981;51.052;13.754;2022-12-07T01:28:01;10.82;;;6.53;;
75062;SDS011;63981;51.052;13.754;2022-12-07T01:29:04;10.23;;;6.03;;
75062;SDS011;63981;51.052;13.754;2022-12-07T01:30:05;10.73;;;5.93;;
75062;SDS011;63981;51.052;13.754;2022-12-07T01:31:08;10.70;;;7.00;;
75062;SDS011;63981;51.052;13.754;2022-12-07T01:32:11;9.63;;;5.72;;
75062;SDS011;63981;51.052;13.754;2022-12-07T01:33:12;9.85;;;6.28;;
75062;SDS011;63981;51.052;13.754;2022-12-07T01:34:13;10.45;;;6.55;;
75062;SDS011;63981;51.052;13.754;2022-12-07T01:35:14;12.63;;;6.88;;
75062;SDS011;63981;51.052;13.754;2022-12-07T01:37:24;11.18;;;6.65;;
75062;SDS011;63981;51.052;13.754;2022-12-07T01:38:25;10.55;;;6.43;;
75062;SDS011;63981;51.052;13.754;2022-12-07T01:39:26;13.80;;;7.47;;
75062;SDS011;63981;51.052;13.754;2022-12-07T01:40:28;14.95;;;7.13;;
75062;SDS011;63981;51.052;13.754;2022-12-07T01:41:30;10.57;;;6.50;;
75062;SDS011;63981;51.052;13.754;2022-12-07T01:42:33;12.48;;;6.53;;
75062;SDS011;63981;51.052;13.754;2022-12-07T01:43:34;10.57;;;6.60;;
75062;SDS011;63981;51.052;13.754;2022-12-07T01:46:15;10.55;;;5.75;;
75062;SDS011;63981;51.052;13.754;2022-12-07T01:47:16;11.82;;;6.93;;
75062;SDS011;63981;51.052;13.754;2022-12-07T01:48:17;11.82;;;6.93;;
75062;SDS011;63981;51.052;13.754;2022-12-07T01:49:43;10.07;;;6.70;;
75062;SDS011;63981;51.052;13.754;2022-12-07T01:51:10;11.25;;;6.53;;
75062;SDS011;63981;51.052;13.754;2022-12-07T01:52:16;11.10;;;6.32;;
75062;SDS011;63981;51.052;13.754;2022-12-07T01:53:17;11.75;;;6.57;;
75062;SDS011;63981;51.052;13.754;2022-12-07T01:54:18;9.75;;;6.03;;
75062;SDS011;63981;51.052;13.754;2022-12-07T01:55:21;10.48;;;6.22;;
75062;SDS011;63981;51.052;13.754;2022-12-07T01:56:23;11.27;;;6.90;;
75062;SDS011;63981;51.052;13.754;2022-12-07T01:57:27;11.48;;;6.60;;
75062;SDS011;63981;51.052;13.754;2022-12-07T01:58:29;10.30;;;6.55;;
75062;SDS011;63981;51.052;13.754;2022-12-07T01:59:30;10.18;;;6.13;;
75062;SDS011;63981;51.052;13.754;2022-12-07T02:00:31;8.98;;;6.03;;
75062;SDS011;63981;51.052;13.754;2022-12-07T02:01:32;9.63;;;6.53;;
75062;SDS011;63981;51.052;13.754;2022-12-07T02:02:33;9.23;;;5.78;;
75062;SDS011;63981;51.052;13.754;2022-12-07T02:03:40;9.73;;;5.82;;
75062;SDS011;63981;51.052;13.754;2022-12-07T02:04:42;11.65;;;6.43;;
75062;SDS011;63981;51.052;13.754;2022-12-07T02:05:44;10.05;;;6.03;;
75062;SDS011;63981;51.052;13.754;2022-12-07T02:06:46;8.32;;;5.35;;
75062;SDS011;63981;51.052;13.754;2022-12-07T02:07:48;12.35;;;7.10;;
75062;SDS011;63981;51.052;13.754;2022-12-07T02:08:50;9.73;;;6.00;;
75062;SDS011;63981;51.052;13.754;2022-12-07T02:09:51;8.85;;;6.05;;
75062;SDS011;63981;51.052;13.754;2022-12-07T02:10:52;10.68;;;6.15;;
75062;SDS011;63981;51.052;13.754;2022-12-07T02:11:59;9.65;;;6.00;;
75062;SDS011;63981;51.052;13.754;2022-12-07T02:13:08;10.90;;;6.40;;
75062;SDS011;63981;51.052;13.754;2022-12-07T02:14:23;9.88;;;5.90;;
75062;SDS011;63981;51.052;13.754;2022-12-07T02:15:26;9.77;;;5.68;;
75062;SDS011;63981;51.052;13.754;2022-12-07T02:18:09;8.77;;;5.10;;
75062;SDS011;63981;51.052;13.754;2022-12-07T02:20:38;8.50;;;5.40;;
75062;SDS011;63981;51.052;13.754;2022-12-07T02:21:48;7.47;;;5.25;;
75062;SDS011;63981;51.052;13.754;2022-12-07T02:24:48;7.10;;;4.53;;
75062;SDS011;63981;51.052;13.754;2022-12-07T02:28:00;7.88;;;4.93;;
75062;SDS011;63981;51.052;13.754;2022-12-07T02:29:31;7.53;;;4.28;;
75062;SDS011;63981;51.052;13.754;2022-12-07T02:30:40;8.25;;;4.93;;
75062;SDS011;63981;51.052;13.754;2022-12-07T02:31:50;7.22;;;4.30;;
75062;SDS011;63981;51.052;13.754;2022-12-07T02:33:19;8.15;;;4.45;;
75062;SDS011;63981;51.052;13.754;2022-12-07T02:37:03;6.65;;;4.20;;
75062;SDS011;63981;51.052;13.754;2022-12-07T02:38:25;6.15;;;4.10;;
75062;SDS011;63981;51.052;13.754;2022-12-07T02:39:34;7.00;;;4.43;;
75062;SDS011;63981;51.052;13.754;2022-12-07T02:41:56;8.50;;;5.30;;
75062;SDS011;63981;51.052;13.754;2022-12-07T02:43:04;6.57;;;4.00;;
75062;SDS011;63981;51.052;13.754;2022-12-07T02:44:10;6.72;;;4.40;;
75062;SDS011;63981;51.052;13.754;2022-12-07T02:45:15;7.60;;;4.95;;
75062;SDS011;63981;51.052;13.754;2022-12-07T02:46:38;7.68;;;5.13;;
75062;SDS011;63981;51.052;13.754;2022-12-07T02:47:42;7.95;;;5.28;;
75062;SDS011;63981;51.052;13.754;2022-12-07T02:48:44;7.93;;;5.25;;
75062;SDS011;63981;51.052;13.754;2022-12-07T02:49:45;8.10;;;4.50;;
75062;SDS011;63981;51.052;13.754;2022-12-07T02:50:50;6.93;;;4.13;;
75062;SDS011;63981;51.052;13.754;2022-12-07T02:51:53;7.57;;;4.80;;
75062;SDS011;63981;51.052;13.754;2022-12-07T02:52:54;6.15;;;4.35;;
75062;SDS011;63981;51.052;13.754;2022-12-07T02:53:55;7.50;;;4.30;;
75062;SDS011;63981;51.052;13.754;2022-12-07T02:55:56;7.50;;;4.65;;
75062;SDS011;63981;51.052;13.754;2022-12-07T03:00:52;6.32;;;4.57;;
75062;SDS011;63981;51.052;13.754;2022-12-07T03:03:15;6.50;;;4.47;;
75062;SDS011;63981;51.052;13.754;2022-12-07T03:06:56;7.00;;;4.05;;
75062;SDS011;63981;51.052;13.754;2022-12-07T03:09:27;6.65;;;4.38;;
75062;SDS011;63981;51.052;13.754;2022-12-07T03:10:42;8.75;;;5.65;;
75062;SDS011;63981;51.052;13.754;2022-12-07T03:11:51;8.80;;;5.80;;
75062;SDS011;63981;51.052;13.754;2022-12-07T03:13:07;8.32;;;5.32;;
75062;SDS011;63981;51.052;13.754;2022-12-07T03:14:21;6.57;;;4.47;;
75062;SDS011;63981;51.052;13.754;2022-12-07T03:17:22;11.02;;;5.75;;
75062;SDS011;63981;51.052;13.754;2022-12-07T03:18:28;8.32;;;5.00;;
75062;SDS011;63981;51.052;13.754;2022-12-07T03:19:31;9.45;;;5.70;;
75062;SDS011;63981;51.052;13.754;2022-12-07T03:20:34;8.82;;;5.75;;
75062;SDS011;63981;51.052;13.754;2022-12-07T03:21:40;8.15;;;5.55;;
75062;SDS011;63981;51.052;13.754;2022-12-07T03:22:44;10.18;;;6.00;;
75062;SDS011;63981;51.052;13.754;2022-12-07T03:23:48;9.20;;;6.05;;
75062;SDS011;63981;51.052;13.754;2022-12-07T03:24:54;9.05;;;6.03;;
75062;SDS011;63981;51.052;13.754;2022-12-07T03:25:58;9.05;;;5.78;;
75062;SDS011;63981;51.052;13.754;2022-12-07T03:27:14;9.50;;;5.63;;
75062;SDS011;63981;51.052;13.754;2022-12-07T03:28:20;8.98;;;5.75;;
75062;SDS011;63981;51.052;13.754;2022-12-07T03:29:34;8.70;;;6.05;;
75062;SDS011;63981;51.052;13.754;2022-12-07T03:30:57;8.80;;;5.25;;
75062;SDS011;63981;51.052;13.754;2022-12-07T03:32:24;7.10;;;5.30;;
75062;SDS011;63981;51.052;13.754;2022-12-07T03:33:42;8.55;;;5.50;;
75062;SDS011;63981;51.052;13.754;2022-12-07T03:34:56;10.45;;;6.65;;
75062;SDS011;63981;51.052;13.754;2022-12-07T03:36:06;11.98;;;6.60;;
75062;SDS011;63981;51.052;13.754;2022-12-07T03:37:31;10.50;;;6.35;;
75062;SDS011;63981;51.052;13.754;2022-12-07T03:39:19;8.55;;;6.00;;
75062;SDS011;63981;51.052;13.754;2022-12-07T03:40:27;9.95;;;6.45;;
75062;SDS011;63981;51.052;13.754;2022-12-07T03:41:35;10.00;;;5.90;;
75062;SDS011;63981;51.052;13.754;2022-12-07T03:42:38;10.35;;;6.72;;
75062;SDS011;63981;51.052;13.754;2022-12-07T03:43:39;11.95;;;6.43;;
75062;SDS011;63981;51.052;13.754;2022-12-07T03:44:41;10.10;;;6.60;;
75062;SDS011;63981;51.052;13.754;2022-12-07T03:46:00;9.60;;;6.35;;
75062;SDS011;63981;51.052;13.754;2022-12-07T03:47:35;9.05;;;6.10;;
75062;SDS011;63981;51.052;13.754;2022-12-07T03:48:46;11.57;;;6.22;;
75062;SDS011;63981;51.052;13.754;2022-12-07T03:52:47;10.75;;;6.50;;
75062;SDS011;63981;51.052;13.754;2022-12-07T03:53:59;9.30;;;5.75;;
75062;SDS011;63981;51.052;13.754;2022-12-07T03:55:16;10.45;;;6.00;;
75062;SDS011;63981;51.052;13.754;2022-12-07T03:56:22;10.90;;;6.55;;
75062;SDS011;63981;51.052;13.754;2022-12-07T03:57:25;14.02;;;7.20;;
75062;SDS011;63981;51.052;13.754;2022-12-07T03:58:28;10.02;;;6.88;;
75062;SDS011;63981;51.052;13.754;2022-12-07T03:59:30;10.18;;;6.20;;
75062;SDS011;63981;51.052;13.754;2022-12-07T04:00:31;11.95;;;6.75;;
75062;SDS011;63981;51.052;13.754;2022-12-07T04:01:32;10.73;;;6.93;;
75062;SDS011;63981;51.052;13.754;2022-12-07T04:02:33;12.60;;;7.55;;
75062;SDS011;63981;51.052;13.754;2022-12-07T04:03:34;11.43;;;6.72;;
75062;SDS011;63981;51.052;13.754;2022-12-07T04:04:35;11.80;;;6.85;;
75062;SDS011;63981;51.052;13.754;2022-12-07T04:06:36;11.45;;;5.75;;
75062;SDS011;63981;51.052;13.754;2022-12-07T04:08:38;12.57;;;6.63;;
75062;SDS011;63981;51.052;13.754;2022-12-07T04:09:38;11.15;;;6.72;;
75062;SDS011;63981;51.052;13.754;2022-12-07T04:10:39;9.77;;;6.40;;
75062;SDS011;63981;51.052;13.754;2022-12-07T04:11:40;9.63;;;6.45;;
75062;SDS011;63981;51.052;13.754;2022-12-07T04:13:41;10.75;;;6.60;;
75062;SDS011;63981;51.052;13.754;2022-12-07T04:15:01;10.65;;;6.38;;
75062;SDS011;63981;51.052;13.754;2022-12-07T04:16:01;10.48;;;6.35;;
75062;SDS011;63981;51.052;13.754;2022-12-07T04:17:02;9.60;;;6.13;;
75062;SDS011;63981;51.052;13.754;2022-12-07T04:18:03;11.02;;;6.60;;
75062;SDS011;63981;51.052;13.754;2022-12-07T04:19:03;9.20;;;6.13;;
75062;SDS011;63981;51.052;13.754;2022-12-07T04:21:05;9.32;;;5.65;;
75062;SDS011;63981;51.052;13.754;2022-12-07T04:22:07;10.43;;;5.97;;
75062;SDS011;63981;51.052;13.754;2022-12-07T04:23:08;10.50;;;5.88;;
75062;SDS011;63981;51.052;13.754;2022-12-07T04:24:09;11.43;;;6.72;;
75062;SDS011;63981;51.052;13.754;2022-12-07T04:25:10;10.00;;;6.10;;
75062;SDS011;63981;51.052;13.754;2022-12-07T04:26:11;9.25;;;5.75;;
75062;SDS011;63981;51.052;13.754;2022-12-07T04:28:12;10.55;;;5.93;;
75062;SDS011;63981;51.052;13.754;2022-12-07T04:29:13;9.60;;;6.15;;
75062;SDS011;63981;51.052;13.754;2022-12-07T04:30:15;11.45;;;6.13;;
75062;SDS011;63981;51.052;13.754;2022-12-07T04:31:15;8.23;;;5.07;;
75062;SDS011;63981;51.052;13.754;2022-12-07T04:32:16;10.90;;;6.13;;
75062;SDS011;63981;51.052;13.754;2022-12-07T04:33:17;10.00;;;6.25;;
75062;SDS011;63981;51.052;13.754;2022-12-07T04:34:18;10.32;;;5.90;;
75062;SDS011;63981;51.052;13.754;2022-12-07T04:35:19;9.98;;;5.50;;
75062;SDS011;63981;51.052;13.754;2022-12-07T04:36:20;13.02;;;7.50;;
75062;SDS011;63981;51.052;13.754;2022-12-07T04:37:20;9.68;;;6.22;;
75062;SDS011;63981;51.052;13.754;2022-12-07T04:38:21;13.20;;;7.45;;
75062;SDS011;63981;51.052;13.754;2022-12-07T04:39:27;10.18;;;6.40;;
75062;SDS011;63981;51.052;13.754;2022-12-07T04:40:30;10.07;;;5.72;;
75062;SDS011;63981;51.052;13.754;2022-12-07T04:41:31;10.75;;;6.13;;
75062;SDS011;63981;51.052;13.754;2022-12-07T04:43:32;7.38;;;4.70;;
75062;SDS011;63981;51.052;13.754;2022-12-07T04:44:34;9.80;;;5.60;;
75062;SDS011;63981;51.052;13.754;2022-12-07T04:45:35;9.70;;;6.25;;
75062;SDS011;63981;51.052;13.754;2022-12-07T04:46:36;9.52;;;5.55;;
75062;SDS011;63981;51.052;13.754;2022-12-07T04:48:37;9.15;;;5.75;;
75062;SDS011;63981;51.052;13.754;2022-12-07T04:50:38;10.40;;;5.30;;
75062;SDS011;63981;51.052;13.754;2022-12-07T04:51:39;11.00;;;5.88;;
75062;SDS011;63981;51.052;13.754;2022-12-07T04:52:40;10.90;;;5.65;;
75062;SDS011;63981;51.052;13.754;2022-12-07T04:53:41;9.48;;;5.57;;
75062;SDS011;63981;51.052;13.754;2022-12-07T04:55:42;9.88;;;6.10;;
75062;SDS011;63981;51.052;13.754;2022-12-07T04:56:43;11.10;;;5.50;;
75062;SDS011;63981;51.052;13.754;2022-12-07T04:57:44;12.65;;;5.75;;
75062;SDS011;63981;51.052;13.754;2022-12-07T04:59:46;10.75;;;6.15;;
75062;SDS011;63981;51.052;13.754;2022-12-07T05:00:47;9.27;;;5.70;;
75062;SDS011;63981;51.052;13.754;2022-12-07T05:01:47;7.95;;;5.22;;
75062;SDS011;63981;51.052;13.754;2022-12-07T05:03:49;8.68;;;5.18;;
75062;SDS011;63981;51.052;13.754;2022-12-07T05:04:49;11.93;;;6.60;;
75062;SDS011;63981;51.052;13.754;2022-12-07T05:05:50;9.13;;;5.72;;
75062;SDS011;63981;51.052;13.754;2022-12-07T05:06:51;10.50;;;6.40;;
75062;SDS011;63981;51.052;13.754;2022-12-07T05:07:52;9.18;;;5.05;;
75062;SDS011;63981;51.052;13.754;2022-12-07T05:08:53;10.88;;;6.50;;
75062;SDS011;63981;51.052;13.754;2022-12-07T05:09:54;9.88;;;5.78;;
75062;SDS011;63981;51.052;13.754;2022-12-07T05:10:55;9.50;;;5.38;;
75062;SDS011;63981;51.052;13.754;2022-12-07T05:12:56;8.98;;;5.72;;
75062;SDS011;63981;51.052;13.754;2022-12-07T05:14:57;8.30;;;4.88;;
75062;SDS011;63981;51.052;13.754;2022-12-07T05:16:58;7.10;;;4.53;;
75062;SDS011;63981;51.052;13.754;2022-12-07T05:17:59;9.45;;;5.63;;
75062;SDS011;63981;51.052;13.754;2022-12-07T05:20:01;9.85;;;5.38;;
75062;SDS011;63981;51.052;13.754;2022-12-07T05:21:01;9.65;;;5.68;;
75062;SDS011;63981;51.052;13.754;2022-12-07T05:22:02;8.50;;;5.15;;
75062;SDS011;63981;51.052;13.754;2022-12-07T05:23:03;9.90;;;5.32;;
75062;SDS011;63981;51.052;13.754;2022-12-07T05:25:05;10.57;;;5.57;;
75062;SDS011;63981;51.052;13.754;2022-12-07T05:26:06;10.00;;;5.50;;
75062;SDS011;63981;51.052;13.754;2022-12-07T05:27:06;7.90;;;4.55;;
75062;SDS011;63981;51.052;13.754;2022-12-07T05:28:07;8.88;;;5.85;;
75062;SDS011;63981;51.052;13.754;2022-12-07T05:30:11;9.90;;;5.35;;
75062;SDS011;63981;51.052;13.754;2022-12-07T05:31:12;8.38;;;5.18;;
75062;SDS011;63981;51.052;13.754;2022-12-07T05:32:13;7.88;;;4.80;;
75062;SDS011;63981;51.052;13.754;2022-12-07T05:34:14;8.70;;;5.18;;
75062;SDS011;63981;51.052;13.754;2022-12-07T05:35:15;9.23;;;5.07;;
75062;SDS011;63981;51.052;13.754;2022-12-07T05:36:15;8.32;;;4.53;;
75062;SDS011;63981;51.052;13.754;2022-12-07T05:37:16;9.07;;;5.47;;
75062;SDS011;63981;51.052;13.754;2022-12-07T05:38:17;7.90;;;4.53;;
75062;SDS011;63981;51.052;13.754;2022-12-07T05:40:19;9.70;;;4.72;;
75062;SDS011;63981;51.052;13.754;2022-12-07T05:41:19;8.63;;;4.40;;
75062;SDS011;63981;51.052;13.754;2022-12-07T05:42:39;8.18;;;4.50;;
75062;SDS011;63981;51.052;13.754;2022-12-07T05:43:40;8.27;;;5.05;;
75062;SDS011;63981;51.052;13.754;2022-12-07T05:44:42;7.60;;;4.72;;
75062;SDS011;63981;51.052;13.754;2022-12-07T05:45:44;9.07;;;4.95;;
75062;SDS011;63981;51.052;13.754;2022-12-07T05:46:45;7.20;;;3.85;;
75062;SDS011;63981;51.052;13.754;2022-12-07T05:47:46;6.75;;;4.25;;
75062;SDS011;63981;51.052;13.754;2022-12-07T05:48:46;8.55;;;4.95;;
75062;SDS011;63981;51.052;13.754;2022-12-07T05:50:48;7.15;;;4.20;;
75062;SDS011;63981;51.052;13.754;2022-12-07T05:51:49;6.63;;;4.22;;
75062;SDS011;63981;51.052;13.754;2022-12-07T05:52:50;7.20;;;3.70;;
75062;SDS011;63981;51.052;13.754;2022-12-07T05:54:51;5.88;;;3.42;;
75062;SDS011;63981;51.052;13.754;2022-12-07T05:55:52;6.30;;;4.10;;
75062;SDS011;63981;51.052;13.754;2022-12-07T05:56:53;6.68;;;3.85;;
75062;SDS011;63981;51.052;13.754;2022-12-07T05:59:13;6.55;;;3.50;;
75062;SDS011;63981;51.052;13.754;2022-12-07T06:00:23;5.93;;;3.85;;
75062;SDS011;63981;51.052;13.754;2022-12-07T06:01:24;6.88;;;3.95;;
75062;SDS011;63981;51.052;13.754;2022-12-07T06:02:25;6.43;;;3.75;;
75062;SDS011;63981;51.052;13.754;2022-12-07T06:03:25;4.97;;;3.22;;
75062;SDS011;63981;51.052;13.754;2022-12-07T06:05:28;5.22;;;3.13;;
75062;SDS011;63981;51.052;13.754;2022-12-07T06:06:29;5.80;;;3.70;;
75062;SDS011;63981;51.052;13.754;2022-12-07T06:08:31;5.30;;;3.53;;
75062;SDS011;63981;51.052;13.754;2022-12-07T06:09:32;6.13;;;3.60;;
75062;SDS011;63981;51.052;13.754;2022-12-07T06:10:33;6.00;;;3.97;;
75062;SDS011;63981;51.052;13.754;2022-12-07T06:11:34;5.55;;;3.22;;
75062;SDS011;63981;51.052;13.754;2022-12-07T06:39:15;4.53;;;2.72;;
75062;SDS011;63981;51.052;13.754;2022-12-07T06:40:16;4.65;;;2.72;;
75062;SDS011;63981;51.052;13.754;2022-12-07T06:41:17;3.85;;;2.95;;
75062;SDS011;63981;51.052;13.754;2022-12-07T06:42:18;4.45;;;2.85;;
75062;SDS011;63981;51.052;13.754;2022-12-07T06:43:19;4.72;;;3.05;;
75062;SDS011;63981;51.052;13.754;2022-12-07T06:44:20;4.80;;;3.22;;
75062;SDS011;63981;51.052;13.754;2022-12-07T06:45:22;4.35;;;3.28;;
75062;SDS011;63981;51.052;13.754;2022-12-07T06:46:23;4.22;;;3.13;;
75062;SDS011;63981;51.052;13.754;2022-12-07T06:47:24;4.82;;;3.15;;
75062;SDS011;63981;51.052;13.754;2022-12-07T06:48:25;4.28;;;2.70;;
75062;SDS011;63981;51.052;13.754;2022-12-07T06:49:26;4.97;;;3.08;;
75062;SDS011;63981;51.052;13.754;2022-12-07T06:51:27;4.40;;;3.20;;
75062;SDS011;63981;51.052;13.754;2022-12-07T06:53:28;5.32;;;3.10;;
75062;SDS011;63981;51.052;13.754;2022-12-07T06:55:30;4.18;;;2.80;;
75062;SDS011;63981;51.052;13.754;2022-12-07T06:56:31;4.45;;;3.17;;
75062;SDS011;63981;51.052;13.754;2022-12-07T06:57:32;4.43;;;2.55;;
75062;SDS011;63981;51.052;13.754;2022-12-07T06:59:33;4.90;;;2.92;;
75062;SDS011;63981;51.052;13.754;2022-12-07T07:00:34;4.28;;;3.00;;
75062;SDS011;63981;51.052;13.754;2022-12-07T07:02:36;4.25;;;2.53;;
75062;SDS011;63981;51.052;13.754;2022-12-07T07:04:37;4.03;;;2.67;;
75062;SDS011;63981;51.052;13.754;2022-12-07T07:05:38;5.80;;;2.72;;
75062;SDS011;63981;51.052;13.754;2022-12-07T07:06:39;5.90;;;3.20;;
75062;SDS011;63981;51.052;13.754;2022-12-07T07:07:40;4.40;;;2.88;;
75062;SDS011;63981;51.052;13.754;2022-12-07T07:08:41;4.82;;;3.25;;
75062;SDS011;63981;51.052;13.754;2022-12-07T07:09:42;5.93;;;3.20;;
75062;SDS011;63981;51.052;13.754;2022-12-07T07:10:43;4.00;;;2.97;;
75062;SDS011;63981;51.052;13.754;2022-12-07T07:11:43;4.35;;;2.90;;
75062;SDS011;63981;51.052;13.754;2022-12-07T07:12:44;5.57;;;3.20;;
75062;SDS011;63981;51.052;13.754;2022-12-07T07:13:45;4.45;;;3.22;;
75062;SDS011;63981;51.052;13.754;2022-12-07T07:14:46;4.25;;;3.22;;
75062;SDS011;63981;51.052;13.754;2022-12-07T07:15:47;4.00;;;3.10;;
75062;SDS011;63981;51.052;13.754;2022-12-07T07:16:48;4.68;;;2.63;;
75062;SDS011;63981;51.052;13.754;2022-12-07T07:17:48;4.72;;;3.10;;
75062;SDS011;63981;51.052;13.754;2022-12-07T07:18:49;4.70;;;3.80;;
75062;SDS011;63981;51.052;13.754;2022-12-07T07:19:50;4.60;;;3.15;;
75062;SDS011;63981;51.052;13.754;2022-12-07T07:20:51;4.95;;;3.08;;
75062;SDS011;63981;51.052;13.754;2022-12-07T07:21:52;4.40;;;2.92;;
75062;SDS011;63981;51.052;13.754;2022-12-07T07:22:54;4.88;;;3.42;;
75062;SDS011;63981;51.052;13.754;2022-12-07T07:23:55;5.07;;;3.10;;
75062;SDS011;63981;51.052;13.754;2022-12-07T07:24:56;4.63;;;2.92;;
75062;SDS011;63981;51.052;13.754;2022-12-07T07:25:57;4.28;;;2.85;;
75062;SDS011;63981;51.052;13.754;2022-12-07T07:27:58;3.72;;;2.70;;
75062;SDS011;63981;51.052;13.754;2022-12-07T07:29:00;4.07;;;2.70;;
75062;SDS011;63981;51.052;13.754;2022-12-07T07:30:00;4.65;;;3.00;;
75062;SDS011;63981;51.052;13.754;2022-12-07T07:32:02;4.75;;;3.15;;
75062;SDS011;63981;51.052;13.754;2022-12-07T07:34:04;4.28;;;2.78;;
75062;SDS011;63981;51.052;13.754;2022-12-07T07:35:05;4.90;;;3.17;;
75062;SDS011;63981;51.052;13.754;2022-12-07T07:36:06;4.47;;;2.97;;
75062;SDS011;63981;51.052;13.754;2022-12-07T07:37:07;4.82;;;3.05;;
75062;SDS011;63981;51.052;13.754;2022-12-07T07:38:08;4.93;;;3.40;;
75062;SDS011;63981;51.052;13.754;2022-12-07T07:39:09;5.78;;;3.38;;
75062;SDS011;63981;51.052;13.754;2022-12-07T07:40:12;4.88;;;3.10;;
75062;SDS011;63981;51.052;13.754;2022-12-07T07:41:13;4.95;;;3.25;;
75062;SDS011;63981;51.052;13.754;2022-12-07T07:43:15;5.20;;;3.67;;
75062;SDS011;63981;51.052;13.754;2022-12-07T07:44:15;4.50;;;2.85;;
75062;SDS011;63981;51.052;13.754;2022-12-07T07:46:17;5.38;;;3.30;;
75062;SDS011;63981;51.052;13.754;2022-12-07T07:47:18;4.88;;;3.15;;
75062;SDS011;63981;51.052;13.754;2022-12-07T07:48:19;5.38;;;3.92;;
75062;SDS011;63981;51.052;13.754;2022-12-07T07:49:19;4.53;;;3.05;;
75062;SDS011;63981;51.052;13.754;2022-12-07T07:51:21;6.68;;;3.20;;
75062;SDS011;63981;51.052;13.754;2022-12-07T07:52:22;5.95;;;2.65;;
75062;SDS011;63981;51.052;13.754;2022-12-07T07:54:23;5.70;;;3.70;;
75062;SDS011;63981;51.052;13.754;2022-12-07T07:55:24;4.60;;;3.00;;
75062;SDS011;63981;51.052;13.754;2022-12-07T07:57:25;4.95;;;3.22;;